Austin, Nevada
Current Conditions -  °F | °C
As of 11:56 AM on Saturday 25 Oct 2014 (Local Time) from KNFL Reporting Station
Scattered Clouds Scattered Clouds  
Wind Chill: 75°   Ceiling: Unl
Heat Index: 75°   Visibility: 10mi
Dew Point: 18°   Wind: 22mph
Humidity: 12%   Direction: 240°WSW
Pressure: 29.9"   Gusts: 30mph
Location:  39.49°N, 117.07°W
Report Text: KNFL 251856Z 24019G26KT 10SM FEW100 FEW180 SCT260 24/M08 A2990 RMK AO2 PK WND 24026/1817 WSHFT 1743 SLP101 T02391078
Loading
Personal Weather Stations






























Interactive Weather Map
Tropical Storm Tracking
New forecast layout! Learn more

10-Day Weather Forecast

Advertisements
Track Severe Weather on mobile